sensor_id;sensor_type;location;lat;lon;timestamp;P1;durP1;ratioP1;P2;durP2;ratioP2
39044;SDS011;52192;52.002;5.956;2023-12-14T00:02:07;4.88;;;2.72;;
39044;SDS011;52192;52.002;5.956;2023-12-14T00:04:33;4.85;;;2.70;;
39044;SDS011;52192;52.002;5.956;2023-12-14T00:06:58;3.80;;;2.55;;
39044;SDS011;52192;52.002;5.956;2023-12-14T00:09:24;5.03;;;3.33;;
39044;SDS011;52192;52.002;5.956;2023-12-14T00:11:50;6.47;;;3.00;;
39044;SDS011;52192;52.002;5.956;2023-12-14T00:14:15;5.75;;;2.95;;
39044;SDS011;52192;52.002;5.956;2023-12-14T00:16:41;5.38;;;2.85;;
39044;SDS011;52192;52.002;5.956;2023-12-14T00:19:07;3.70;;;2.53;;
39044;SDS011;52192;52.002;5.956;2023-12-14T00:21:33;4.82;;;3.08;;
39044;SDS011;52192;52.002;5.956;2023-12-14T00:23:58;7.05;;;3.38;;
39044;SDS011;52192;52.002;5.956;2023-12-14T00:26:24;5.22;;;2.45;;
39044;SDS011;52192;52.002;5.956;2023-12-14T00:28:49;6.63;;;3.35;;
39044;SDS011;52192;52.002;5.956;2023-12-14T00:31:15;5.78;;;3.17;;
39044;SDS011;52192;52.002;5.956;2023-12-14T00:33:42;5.40;;;3.45;;
39044;SDS011;52192;52.002;5.956;2023-12-14T00:36:08;5.63;;;3.28;;
39044;SDS011;52192;52.002;5.956;2023-12-14T00:38:34;5.65;;;2.85;;
39044;SDS011;52192;52.002;5.956;2023-12-14T00:40:59;4.97;;;2.67;;
39044;SDS011;52192;52.002;5.956;2023-12-14T00:43:25;4.45;;;2.40;;
39044;SDS011;52192;52.002;5.956;2023-12-14T00:45:51;3.55;;;2.75;;
39044;SDS011;52192;52.002;5.956;2023-12-14T00:48:17;5.07;;;3.10;;
39044;SDS011;52192;52.002;5.956;2023-12-14T00:50:43;4.88;;;3.03;;
39044;SDS011;52192;52.002;5.956;2023-12-14T00:53:08;4.65;;;3.17;;
39044;SDS011;52192;52.002;5.956;2023-12-14T00:55:34;5.57;;;2.97;;
39044;SDS011;52192;52.002;5.956;2023-12-14T00:58:00;6.53;;;3.05;;
39044;SDS011;52192;52.002;5.956;2023-12-14T01:00:25;5.25;;;3.08;;
39044;SDS011;52192;52.002;5.956;2023-12-14T01:02:51;8.52;;;4.30;;
39044;SDS011;52192;52.002;5.956;2023-12-14T01:05:17;5.03;;;2.38;;
39044;SDS011;52192;52.002;5.956;2023-12-14T01:07:42;5.38;;;3.05;;
39044;SDS011;52192;52.002;5.956;2023-12-14T01:10:09;5.47;;;2.92;;
39044;SDS011;52192;52.002;5.956;2023-12-14T01:12:35;3.15;;;2.17;;
39044;SDS011;52192;52.002;5.956;2023-12-14T01:15:01;4.57;;;2.90;;
39044;SDS011;52192;52.002;5.956;2023-12-14T01:17:27;4.00;;;2.58;;
39044;SDS011;52192;52.002;5.956;2023-12-14T01:19:53;4.45;;;2.40;;
39044;SDS011;52192;52.002;5.956;2023-12-14T01:22:19;4.70;;;3.05;;
39044;SDS011;52192;52.002;5.956;2023-12-14T01:24:45;5.97;;;3.00;;
39044;SDS011;52192;52.002;5.956;2023-12-14T01:27:10;2.92;;;2.20;;
39044;SDS011;52192;52.002;5.956;2023-12-14T01:29:38;3.83;;;2.15;;
39044;SDS011;52192;52.002;5.956;2023-12-14T01:32:04;5.68;;;3.20;;
39044;SDS011;52192;52.002;5.956;2023-12-14T01:34:30;5.40;;;2.67;;
39044;SDS011;52192;52.002;5.956;2023-12-14T01:36:56;3.78;;;2.70;;
39044;SDS011;52192;52.002;5.956;2023-12-14T01:39:22;4.20;;;2.28;;
39044;SDS011;52192;52.002;5.956;2023-12-14T01:41:47;3.60;;;2.13;;
39044;SDS011;52192;52.002;5.956;2023-12-14T01:44:14;5.18;;;3.08;;
39044;SDS011;52192;52.002;5.956;2023-12-14T01:46:40;3.72;;;2.67;;
39044;SDS011;52192;52.002;5.956;2023-12-14T01:49:05;4.22;;;2.58;;
39044;SDS011;52192;52.002;5.956;2023-12-14T01:51:31;4.00;;;2.85;;
39044;SDS011;52192;52.002;5.956;2023-12-14T01:53:58;6.38;;;2.50;;
39044;SDS011;52192;52.002;5.956;2023-12-14T01:56:24;5.25;;;2.33;;
39044;SDS011;52192;52.002;5.956;2023-12-14T01:58:50;4.57;;;2.72;;
39044;SDS011;52192;52.002;5.956;2023-12-14T02:01:18;4.55;;;2.28;;
39044;SDS011;52192;52.002;5.956;2023-12-14T02:04:06;5.68;;;2.53;;
39044;SDS011;52192;52.002;5.956;2023-12-14T02:06:32;4.13;;;2.28;;
39044;SDS011;52192;52.002;5.956;2023-12-14T02:08:58;3.40;;;2.30;;
39044;SDS011;52192;52.002;5.956;2023-12-14T02:11:24;5.22;;;2.33;;
39044;SDS011;52192;52.002;5.956;2023-12-14T02:13:49;4.93;;;2.20;;
39044;SDS011;52192;52.002;5.956;2023-12-14T02:16:15;6.22;;;3.58;;
39044;SDS011;52192;52.002;5.956;2023-12-14T02:18:41;3.28;;;2.15;;
39044;SDS011;52192;52.002;5.956;2023-12-14T02:21:07;3.22;;;2.58;;
39044;SDS011;52192;52.002;5.956;2023-12-14T02:23:32;3.97;;;2.97;;
39044;SDS011;52192;52.002;5.956;2023-12-14T02:25:59;4.97;;;2.65;;
39044;SDS011;52192;52.002;5.956;2023-12-14T02:28:24;4.05;;;2.80;;
39044;SDS011;52192;52.002;5.956;2023-12-14T02:30:50;5.97;;;2.65;;
39044;SDS011;52192;52.002;5.956;2023-12-14T02:33:16;4.10;;;3.00;;
39044;SDS011;52192;52.002;5.956;2023-12-14T02:35:42;6.32;;;3.50;;
39044;SDS011;52192;52.002;5.956;2023-12-14T02:38:08;3.97;;;2.58;;
39044;SDS011;52192;52.002;5.956;2023-12-14T02:40:34;4.13;;;2.58;;
39044;SDS011;52192;52.002;5.956;2023-12-14T02:43:00;4.78;;;2.95;;
39044;SDS011;52192;52.002;5.956;2023-12-14T02:45:26;3.53;;;1.75;;
39044;SDS011;52192;52.002;5.956;2023-12-14T02:47:51;6.57;;;3.35;;
39044;SDS011;52192;52.002;5.956;2023-12-14T02:50:19;4.65;;;2.72;;
39044;SDS011;52192;52.002;5.956;2023-12-14T02:52:44;4.13;;;2.95;;
39044;SDS011;52192;52.002;5.956;2023-12-14T02:55:10;5.10;;;3.33;;
39044;SDS011;52192;52.002;5.956;2023-12-14T02:57:36;2.72;;;1.88;;
39044;SDS011;52192;52.002;5.956;2023-12-14T03:00:02;5.43;;;2.88;;
39044;SDS011;52192;52.002;5.956;2023-12-14T03:02:28;4.15;;;3.10;;
39044;SDS011;52192;52.002;5.956;2023-12-14T03:04:53;3.95;;;2.08;;
39044;SDS011;52192;52.002;5.956;2023-12-14T03:07:19;3.17;;;2.42;;
39044;SDS011;52192;52.002;5.956;2023-12-14T03:09:45;5.15;;;2.42;;
39044;SDS011;52192;52.002;5.956;2023-12-14T03:12:10;4.40;;;3.00;;
39044;SDS011;52192;52.002;5.956;2023-12-14T03:14:36;4.97;;;2.63;;
39044;SDS011;52192;52.002;5.956;2023-12-14T03:17:02;4.60;;;2.65;;
39044;SDS011;52192;52.002;5.956;2023-12-14T03:19:28;5.25;;;2.97;;
39044;SDS011;52192;52.002;5.956;2023-12-14T03:21:54;4.28;;;3.03;;
39044;SDS011;52192;52.002;5.956;2023-12-14T03:24:20;6.22;;;2.40;;
39044;SDS011;52192;52.002;5.956;2023-12-14T03:26:46;5.13;;;3.22;;
39044;SDS011;52192;52.002;5.956;2023-12-14T03:29:12;4.13;;;2.70;;
39044;SDS011;52192;52.002;5.956;2023-12-14T03:31:38;4.35;;;2.90;;
39044;SDS011;52192;52.002;5.956;2023-12-14T03:34:05;4.00;;;2.63;;
39044;SDS011;52192;52.002;5.956;2023-12-14T03:36:30;3.97;;;2.25;;
39044;SDS011;52192;52.002;5.956;2023-12-14T03:38:56;4.65;;;2.53;;
39044;SDS011;52192;52.002;5.956;2023-12-14T03:41:22;3.88;;;2.38;;
39044;SDS011;52192;52.002;5.956;2023-12-14T03:43:47;3.35;;;2.53;;
39044;SDS011;52192;52.002;5.956;2023-12-14T03:46:13;2.88;;;2.08;;
39044;SDS011;52192;52.002;5.956;2023-12-14T03:48:39;7.22;;;2.70;;
39044;SDS011;52192;52.002;5.956;2023-12-14T03:51:05;3.53;;;2.33;;
39044;SDS011;52192;52.002;5.956;2023-12-14T03:53:31;4.15;;;2.28;;
39044;SDS011;52192;52.002;5.956;2023-12-14T03:56:00;5.60;;;2.22;;
39044;SDS011;52192;52.002;5.956;2023-12-14T03:58:25;4.03;;;2.22;;
39044;SDS011;52192;52.002;5.956;2023-12-14T04:00:51;2.55;;;1.50;;
39044;SDS011;52192;52.002;5.956;2023-12-14T04:03:17;2.90;;;2.17;;
39044;SDS011;52192;52.002;5.956;2023-12-14T04:05:43;3.53;;;2.05;;
39044;SDS011;52192;52.002;5.956;2023-12-14T04:08:09;2.50;;;1.67;;
39044;SDS011;52192;52.002;5.956;2023-12-14T04:10:35;5.32;;;2.72;;
39044;SDS011;52192;52.002;5.956;2023-12-14T04:13:01;3.67;;;2.28;;
39044;SDS011;52192;52.002;5.956;2023-12-14T04:15:27;2.97;;;1.85;;
39044;SDS011;52192;52.002;5.956;2023-12-14T04:17:53;3.70;;;2.47;;
39044;SDS011;52192;52.002;5.956;2023-12-14T04:20:18;3.90;;;2.03;;
39044;SDS011;52192;52.002;5.956;2023-12-14T04:22:44;3.60;;;2.80;;
39044;SDS011;52192;52.002;5.956;2023-12-14T04:25:10;3.55;;;2.05;;
39044;SDS011;52192;52.002;5.956;2023-12-14T04:27:36;3.70;;;1.90;;
39044;SDS011;52192;52.002;5.956;2023-12-14T04:30:02;3.67;;;2.05;;
39044;SDS011;52192;52.002;5.956;2023-12-14T04:32:29;4.43;;;2.30;;
39044;SDS011;52192;52.002;5.956;2023-12-14T04:34:55;3.83;;;1.75;;
39044;SDS011;52192;52.002;5.956;2023-12-14T04:37:21;4.68;;;2.83;;
39044;SDS011;52192;52.002;5.956;2023-12-14T04:39:46;6.07;;;2.92;;
39044;SDS011;52192;52.002;5.956;2023-12-14T04:42:12;4.50;;;3.00;;
39044;SDS011;52192;52.002;5.956;2023-12-14T04:44:38;4.47;;;2.72;;
39044;SDS011;52192;52.002;5.956;2023-12-14T04:47:04;4.57;;;2.20;;
39044;SDS011;52192;52.002;5.956;2023-12-14T04:49:29;6.18;;;2.92;;
39044;SDS011;52192;52.002;5.956;2023-12-14T04:51:55;4.70;;;3.10;;
39044;SDS011;52192;52.002;5.956;2023-12-14T04:54:21;3.65;;;1.95;;
39044;SDS011;52192;52.002;5.956;2023-12-14T04:56:46;3.88;;;2.38;;
39044;SDS011;52192;52.002;5.956;2023-12-14T04:59:12;4.57;;;2.50;;
39044;SDS011;52192;52.002;5.956;2023-12-14T05:01:38;4.43;;;2.35;;
39044;SDS011;52192;52.002;5.956;2023-12-14T05:04:03;2.80;;;2.25;;
39044;SDS011;52192;52.002;5.956;2023-12-14T05:06:29;3.00;;;2.10;;
39044;SDS011;52192;52.002;5.956;2023-12-14T05:08:58;2.40;;;1.98;;
39044;SDS011;52192;52.002;5.956;2023-12-14T05:11:24;3.15;;;2.17;;
39044;SDS011;52192;52.002;5.956;2023-12-14T05:13:49;4.45;;;2.47;;
39044;SDS011;52192;52.002;5.956;2023-12-14T05:16:15;3.75;;;2.55;;
39044;SDS011;52192;52.002;5.956;2023-12-14T05:18:41;4.40;;;3.08;;
39044;SDS011;52192;52.002;5.956;2023-12-14T05:21:07;3.85;;;3.00;;
39044;SDS011;52192;52.002;5.956;2023-12-14T05:23:33;5.88;;;2.78;;
39044;SDS011;52192;52.002;5.956;2023-12-14T05:25:59;5.05;;;2.50;;
39044;SDS011;52192;52.002;5.956;2023-12-14T05:28:24;6.28;;;2.75;;
39044;SDS011;52192;52.002;5.956;2023-12-14T05:30:50;3.78;;;2.08;;
39044;SDS011;52192;52.002;5.956;2023-12-14T05:33:16;4.97;;;2.85;;
39044;SDS011;52192;52.002;5.956;2023-12-14T05:35:41;3.15;;;2.17;;
39044;SDS011;52192;52.002;5.956;2023-12-14T05:38:07;3.75;;;2.40;;
39044;SDS011;52192;52.002;5.956;2023-12-14T05:40:33;2.97;;;2.25;;
39044;SDS011;52192;52.002;5.956;2023-12-14T05:42:59;4.47;;;3.13;;
39044;SDS011;52192;52.002;5.956;2023-12-14T05:45:25;4.38;;;2.17;;
39044;SDS011;52192;52.002;5.956;2023-12-14T05:47:50;3.22;;;2.13;;
39044;SDS011;52192;52.002;5.956;2023-12-14T05:50:16;3.72;;;2.65;;
39044;SDS011;52192;52.002;5.956;2023-12-14T05:52:42;3.08;;;2.05;;
39044;SDS011;52192;52.002;5.956;2023-12-14T05:55:08;5.03;;;2.35;;
39044;SDS011;52192;52.002;5.956;2023-12-14T05:57:37;4.07;;;2.60;;
39044;SDS011;52192;52.002;5.956;2023-12-14T06:00:04;2.88;;;2.08;;
39044;SDS011;52192;52.002;5.956;2023-12-14T06:02:32;3.47;;;2.15;;
39044;SDS011;52192;52.002;5.956;2023-12-14T06:04:58;3.95;;;1.73;;
39044;SDS011;52192;52.002;5.956;2023-12-14T06:07:24;3.97;;;2.50;;
39044;SDS011;52192;52.002;5.956;2023-12-14T06:09:50;3.33;;;2.72;;
39044;SDS011;52192;52.002;5.956;2023-12-14T06:12:16;1.83;;;1.67;;
39044;SDS011;52192;52.002;5.956;2023-12-14T06:14:41;3.38;;;2.83;;
39044;SDS011;52192;52.002;5.956;2023-12-14T06:17:07;2.88;;;2.13;;
39044;SDS011;52192;52.002;5.956;2023-12-14T06:19:33;4.60;;;1.80;;
39044;SDS011;52192;52.002;5.956;2023-12-14T06:21:58;2.55;;;1.50;;
39044;SDS011;52192;52.002;5.956;2023-12-14T06:24:24;2.83;;;1.85;;
39044;SDS011;52192;52.002;5.956;2023-12-14T06:26:50;3.08;;;1.90;;
39044;SDS011;52192;52.002;5.956;2023-12-14T06:29:15;2.67;;;2.08;;
39044;SDS011;52192;52.002;5.956;2023-12-14T06:31:41;2.97;;;1.95;;
39044;SDS011;52192;52.002;5.956;2023-12-14T06:34:07;2.20;;;2.00;;
39044;SDS011;52192;52.002;5.956;2023-12-14T06:36:33;2.63;;;2.20;;
39044;SDS011;52192;52.002;5.956;2023-12-14T06:38:59;3.15;;;1.75;;
39044;SDS011;52192;52.002;5.956;2023-12-14T06:41:26;3.28;;;1.83;;
39044;SDS011;52192;52.002;5.956;2023-12-14T06:43:53;3.58;;;2.22;;
39044;SDS011;52192;52.002;5.956;2023-12-14T06:46:19;2.45;;;1.50;;
39044;SDS011;52192;52.002;5.956;2023-12-14T06:48:45;3.00;;;1.27;;
39044;SDS011;52192;52.002;5.956;2023-12-14T06:51:11;3.20;;;2.35;;
39044;SDS011;52192;52.002;5.956;2023-12-14T06:53:39;3.10;;;1.67;;
39044;SDS011;52192;52.002;5.956;2023-12-14T06:56:06;3.05;;;1.83;;
39044;SDS011;52192;52.002;5.956;2023-12-14T06:58:39;3.30;;;1.70;;
39044;SDS011;52192;52.002;5.956;2023-12-14T07:01:06;3.42;;;1.73;;
39044;SDS011;52192;52.002;5.956;2023-12-14T07:03:32;2.63;;;1.67;;
39044;SDS011;52192;52.002;5.956;2023-12-14T07:05:58;2.78;;;1.33;;
39044;SDS011;52192;52.002;5.956;2023-12-14T07:08:24;2.70;;;1.33;;
39044;SDS011;52192;52.002;5.956;2023-12-14T07:10:50;2.35;;;1.52;;
39044;SDS011;52192;52.002;5.956;2023-12-14T07:13:15;1.45;;;1.30;;
39044;SDS011;52192;52.002;5.956;2023-12-14T07:15:41;1.73;;;1.20;;
39044;SDS011;52192;52.002;5.956;2023-12-14T07:18:07;2.35;;;1.20;;
39044;SDS011;52192;52.002;5.956;2023-12-14T07:20:33;1.85;;;1.25;;
39044;SDS011;52192;52.002;5.956;2023-12-14T07:22:58;1.73;;;1.10;;
39044;SDS011;52192;52.002;5.956;2023-12-14T07:25:24;1.50;;;1.15;;
39044;SDS011;52192;52.002;5.956;2023-12-14T07:27:50;2.33;;;1.73;;
39044;SDS011;52192;52.002;5.956;2023-12-14T07:30:16;1.27;;;1.02;;
39044;SDS011;52192;52.002;5.956;2023-12-14T07:32:41;1.20;;;0.98;;
39044;SDS011;52192;52.002;5.956;2023-12-14T07:35:07;1.80;;;1.45;;
39044;SDS011;52192;52.002;5.956;2023-12-14T07:37:36;3.03;;;1.52;;
39044;SDS011;52192;52.002;5.956;2023-12-14T07:40:01;1.42;;;1.13;;
39044;SDS011;52192;52.002;5.956;2023-12-14T07:42:28;1.30;;;1.20;;
39044;SDS011;52192;52.002;5.956;2023-12-14T07:44:54;6.18;;;1.83;;
39044;SDS011;52192;52.002;5.956;2023-12-14T07:47:19;1.75;;;1.40;;
39044;SDS011;52192;52.002;5.956;2023-12-14T07:49:45;1.98;;;1.08;;
39044;SDS011;52192;52.002;5.956;2023-12-14T07:52:11;3.63;;;1.63;;
39044;SDS011;52192;52.002;5.956;2023-12-14T07:54:38;2.35;;;1.45;;
39044;SDS011;52192;52.002;5.956;2023-12-14T07:57:04;1.52;;;1.25;;
39044;SDS011;52192;52.002;5.956;2023-12-14T07:59:30;2.25;;;1.33;;
39044;SDS011;52192;52.002;5.956;2023-12-14T08:01:56;2.00;;;1.20;;
39044;SDS011;52192;52.002;5.956;2023-12-14T08:04:21;1.25;;;1.02;;
39044;SDS011;52192;52.002;5.956;2023-12-14T08:06:48;3.40;;;1.65;;
39044;SDS011;52192;52.002;5.956;2023-12-14T08:09:14;1.70;;;1.45;;
39044;SDS011;52192;52.002;5.956;2023-12-14T08:11:39;1.77;;;1.25;;
39044;SDS011;52192;52.002;5.956;2023-12-14T08:14:05;2.08;;;1.42;;
39044;SDS011;52192;52.002;5.956;2023-12-14T08:16:31;1.42;;;0.98;;
39044;SDS011;52192;52.002;5.956;2023-12-14T08:18:57;1.30;;;1.05;;
39044;SDS011;52192;52.002;5.956;2023-12-14T08:21:23;2.47;;;1.48;;
39044;SDS011;52192;52.002;5.956;2023-12-14T08:23:48;2.17;;;1.50;;
39044;SDS011;52192;52.002;5.956;2023-12-14T08:26:14;2.33;;;1.40;;
39044;SDS011;52192;52.002;5.956;2023-12-14T08:28:40;1.13;;;1.02;;
39044;SDS011;52192;52.002;5.956;2023-12-14T08:31:05;3.22;;;1.27;;
39044;SDS011;52192;52.002;5.956;2023-12-14T08:33:31;1.95;;;1.52;;
39044;SDS011;52192;52.002;5.956;2023-12-14T08:35:57;1.52;;;1.25;;
39044;SDS011;52192;52.002;5.956;2023-12-14T08:38:23;1.60;;;1.17;;
39044;SDS011;52192;52.002;5.956;2023-12-14T08:40:49;0.90;;;0.88;;
39044;SDS011;52192;52.002;5.956;2023-12-14T08:43:16;2.63;;;1.48;;
39044;SDS011;52192;52.002;5.956;2023-12-14T08:45:41;1.85;;;0.95;;
39044;SDS011;52192;52.002;5.956;2023-12-14T08:48:07;2.63;;;1.52;;
39044;SDS011;52192;52.002;5.956;2023-12-14T08:50:33;1.52;;;1.20;;
39044;SDS011;52192;52.002;5.956;2023-12-14T08:52:58;1.23;;;1.13;;
39044;SDS011;52192;52.002;5.956;2023-12-14T08:55:24;2.10;;;1.23;;
39044;SDS011;52192;52.002;5.956;2023-12-14T08:57:50;2.00;;;1.20;;
39044;SDS011;52192;52.002;5.956;2023-12-14T09:00:16;2.72;;;1.60;;
39044;SDS011;52192;52.002;5.956;2023-12-14T09:02:45;1.50;;;1.25;;
39044;SDS011;52192;52.002;5.956;2023-12-14T09:05:11;1.75;;;1.10;;
39044;SDS011;52192;52.002;5.956;2023-12-14T09:07:38;1.25;;;1.13;;
39044;SDS011;52192;52.002;5.956;2023-12-14T09:10:04;3.33;;;1.63;;
39044;SDS011;52192;52.002;5.956;2023-12-14T09:12:31;1.80;;;1.25;;
39044;SDS011;52192;52.002;5.956;2023-12-14T09:14:58;1.45;;;1.08;;
39044;SDS011;52192;52.002;5.956;2023-12-14T09:17:24;1.13;;;1.02;;
39044;SDS011;52192;52.002;5.956;2023-12-14T09:19:50;3.35;;;1.33;;
39044;SDS011;52192;52.002;5.956;2023-12-14T09:22:15;2.90;;;1.63;;
39044;SDS011;52192;52.002;5.956;2023-12-14T09:24:42;5.32;;;1.42;;
39044;SDS011;52192;52.002;5.956;2023-12-14T09:27:08;2.95;;;1.73;;
39044;SDS011;52192;52.002;5.956;2023-12-14T09:29:33;1.77;;;1.60;;
39044;SDS011;52192;52.002;5.956;2023-12-14T09:31:59;1.30;;;1.20;;
39044;SDS011;52192;52.002;5.956;2023-12-14T09:34:25;2.80;;;1.40;;
39044;SDS011;52192;52.002;5.956;2023-12-14T09:36:50;2.22;;;1.63;;
39044;SDS011;52192;52.002;5.956;2023-12-14T09:39:17;4.63;;;1.35;;
39044;SDS011;52192;52.002;5.956;2023-12-14T09:41:44;1.30;;;0.93;;
39044;SDS011;52192;52.002;5.956;2023-12-14T09:44:11;1.42;;;1.30;;
39044;SDS011;52192;52.002;5.956;2023-12-14T09:46:37;2.75;;;2.15;;
39044;SDS011;52192;52.002;5.956;2023-12-14T09:49:04;2.03;;;1.40;;
39044;SDS011;52192;52.002;5.956;2023-12-14T09:51:30;3.30;;;1.35;;
39044;SDS011;52192;52.002;5.956;2023-12-14T09:53:56;1.67;;;1.45;;
39044;SDS011;52192;52.002;5.956;2023-12-14T09:56:25;2.63;;;1.40;;
39044;SDS011;52192;52.002;5.956;2023-12-14T09:58:52;2.38;;;1.50;;
39044;SDS011;52192;52.002;5.956;2023-12-14T10:01:21;2.08;;;1.60;;
39044;SDS011;52192;52.002;5.956;2023-12-14T10:04:11;2.05;;;1.40;;
39044;SDS011;52192;52.002;5.956;2023-12-14T10:06:38;2.55;;;2.20;;
39044;SDS011;52192;52.002;5.956;2023-12-14T10:09:05;2.95;;;1.90;;
39044;SDS011;52192;52.002;5.956;2023-12-14T10:11:43;1.98;;;1.45;;
39044;SDS011;52192;52.002;5.956;2023-12-14T10:14:17;2.53;;;1.92;;
39044;SDS011;52192;52.002;5.956;2023-12-14T10:16:47;2.38;;;1.52;;
39044;SDS011;52192;52.002;5.956;2023-12-14T10:19:14;5.18;;;1.63;;
39044;SDS011;52192;52.002;5.956;2023-12-14T10:21:42;2.70;;;1.73;;
39044;SDS011;52192;52.002;5.956;2023-12-14T10:24:08;2.22;;;1.73;;
39044;SDS011;52192;52.002;5.956;2023-12-14T10:26:34;5.57;;;1.83;;
39044;SDS011;52192;52.002;5.956;2023-12-14T10:29:00;2.92;;;2.05;;
39044;SDS011;52192;52.002;5.956;2023-12-14T10:31:29;2.90;;;1.52;;
39044;SDS011;52192;52.002;5.956;2023-12-14T10:33:56;3.35;;;1.77;;
39044;SDS011;52192;52.002;5.956;2023-12-14T10:36:24;3.65;;;1.75;;
39044;SDS011;52192;52.002;5.956;2023-12-14T10:38:53;2.67;;;1.48;;
39044;SDS011;52192;52.002;5.956;2023-12-14T10:41:22;2.70;;;2.13;;
39044;SDS011;52192;52.002;5.956;2023-12-14T10:43:49;2.60;;;1.52;;
39044;SDS011;52192;52.002;5.956;2023-12-14T10:46:17;2.83;;;1.70;;
39044;SDS011;52192;52.002;5.956;2023-12-14T10:48:45;2.20;;;1.67;;
39044;SDS011;52192;52.002;5.956;2023-12-14T10:51:12;3.70;;;2.17;;
39044;SDS011;52192;52.002;5.956;2023-12-14T10:53:40;3.45;;;1.77;;
39044;SDS011;52192;52.002;5.956;2023-12-14T10:56:11;3.25;;;1.70;;
39044;SDS011;52192;52.002;5.956;2023-12-14T10:58:44;3.95;;;2.20;;
39044;SDS011;52192;52.002;5.956;2023-12-14T11:01:18;2.05;;;1.73;;
39044;SDS011;52192;52.002;5.956;2023-12-14T11:03:45;2.42;;;2.10;;
39044;SDS011;52192;52.002;5.956;2023-12-14T11:09:05;2.70;;;2.05;;
39044;SDS011;52192;52.002;5.956;2023-12-14T11:11:39;5.43;;;2.13;;
39044;SDS011;52192;52.002;5.956;2023-12-14T11:14:10;4.53;;;2.33;;
39044;SDS011;52192;52.002;5.956;2023-12-14T11:16:38;6.22;;;2.30;;
39044;SDS011;52192;52.002;5.956;2023-12-14T11:21:48;2.38;;;1.58;;
39044;SDS011;52192;52.002;5.956;2023-12-14T11:24:21;3.72;;;2.20;;
39044;SDS011;52192;52.002;5.956;2023-12-14T11:26:50;3.70;;;1.75;;
39044;SDS011;52192;52.002;5.956;2023-12-14T11:29:17;3.83;;;1.65;;
39044;SDS011;52192;52.002;5.956;2023-12-14T11:31:44;6.70;;;2.40;;
39044;SDS011;52192;52.002;5.956;2023-12-14T11:34:10;4.40;;;2.50;;
39044;SDS011;52192;52.002;5.956;2023-12-14T11:36:36;4.30;;;2.33;;
39044;SDS011;52192;52.002;5.956;2023-12-14T11:39:04;3.95;;;1.98;;
39044;SDS011;52192;52.002;5.956;2023-12-14T11:41:30;2.55;;;1.95;;
39044;SDS011;52192;52.002;5.956;2023-12-14T11:43:58;2.67;;;1.70;;
39044;SDS011;52192;52.002;5.956;2023-12-14T11:46:24;3.78;;;1.48;;
39044;SDS011;52192;52.002;5.956;2023-12-14T11:48:50;11.50;;;2.50;;
39044;SDS011;52192;52.002;5.956;2023-12-14T11:51:16;2.67;;;2.00;;
39044;SDS011;52192;52.002;5.956;2023-12-14T11:53:48;3.65;;;1.63;;
39044;SDS011;52192;52.002;5.956;2023-12-14T11:56:16;4.72;;;2.05;;
39044;SDS011;52192;52.002;5.956;2023-12-14T11:58:46;7.07;;;2.25;;
39044;SDS011;52192;52.002;5.956;2023-12-14T12:03:38;7.03;;;2.28;;
39044;SDS011;52192;52.002;5.956;2023-12-14T12:06:03;2.53;;;1.77;;
39044;SDS011;52192;52.002;5.956;2023-12-14T12:08:29;5.15;;;2.03;;
39044;SDS011;52192;52.002;5.956;2023-12-14T12:10:56;3.95;;;1.83;;
39044;SDS011;52192;52.002;5.956;2023-12-14T12:13:22;2.63;;;1.67;;
39044;SDS011;52192;52.002;5.956;2023-12-14T12:15:48;2.92;;;1.95;;
39044;SDS011;52192;52.002;5.956;2023-12-14T12:18:14;4.00;;;2.05;;
39044;SDS011;52192;52.002;5.956;2023-12-14T12:20:41;3.45;;;2.22;;
39044;SDS011;52192;52.002;5.956;2023-12-14T12:23:07;4.55;;;2.22;;
39044;SDS011;52192;52.002;5.956;2023-12-14T12:25:33;3.30;;;1.73;;
39044;SDS011;52192;52.002;5.956;2023-12-14T12:28:00;4.43;;;2.33;;
39044;SDS011;52192;52.002;5.956;2023-12-14T12:30:27;4.22;;;1.77;;
39044;SDS011;52192;52.002;5.956;2023-12-14T12:32:53;4.85;;;2.88;;
39044;SDS011;52192;52.002;5.956;2023-12-14T12:35:20;1.55;;;1.30;;
39044;SDS011;52192;52.002;5.956;2023-12-14T12:37:47;1.73;;;1.30;;
39044;SDS011;52192;52.002;5.956;2023-12-14T12:40:18;3.45;;;1.63;;
39044;SDS011;52192;52.002;5.956;2023-12-14T12:42:45;3.15;;;1.50;;
39044;SDS011;52192;52.002;5.956;2023-12-14T12:45:13;2.05;;;1.52;;
39044;SDS011;52192;52.002;5.956;2023-12-14T12:47:41;2.80;;;1.50;;
39044;SDS011;52192;52.002;5.956;2023-12-14T12:50:06;2.85;;;1.75;;
39044;SDS011;52192;52.002;5.956;2023-12-14T12:52:32;2.53;;;1.63;;
39044;SDS011;52192;52.002;5.956;2023-12-14T12:54:58;2.50;;;2.17;;
39044;SDS011;52192;52.002;5.956;2023-12-14T12:57:25;2.45;;;1.73;;
39044;SDS011;52192;52.002;5.956;2023-12-14T12:59:51;2.95;;;1.75;;
39044;SDS011;52192;52.002;5.956;2023-12-14T13:02:17;2.55;;;1.80;;
39044;SDS011;52192;52.002;5.956;2023-12-14T13:04:42;2.08;;;1.63;;
39044;SDS011;52192;52.002;5.956;2023-12-14T13:07:08;2.55;;;1.58;;
39044;SDS011;52192;52.002;5.956;2023-12-14T13:09:34;5.63;;;1.92;;
39044;SDS011;52192;52.002;5.956;2023-12-14T13:11:59;4.03;;;2.13;;
39044;SDS011;52192;52.002;5.956;2023-12-14T13:14:25;2.55;;;1.60;;
39044;SDS011;52192;52.002;5.956;2023-12-14T13:16:51;2.47;;;1.58;;
39044;SDS011;52192;52.002;5.956;2023-12-14T13:19:16;2.70;;;1.60;;
39044;SDS011;52192;52.002;5.956;2023-12-14T13:21:42;3.17;;;1.70;;
39044;SDS011;52192;52.002;5.956;2023-12-14T13:24:08;2.85;;;1.90;;
39044;SDS011;52192;52.002;5.956;2023-12-14T13:26:33;1.67;;;1.50;;
39044;SDS011;52192;52.002;5.956;2023-12-14T13:28:59;2.42;;;1.63;;
39044;SDS011;52192;52.002;5.956;2023-12-14T13:31:25;1.90;;;1.40;;
39044;SDS011;52192;52.002;5.956;2023-12-14T13:33:50;2.35;;;1.58;;
39044;SDS011;52192;52.002;5.956;2023-12-14T13:36:17;2.40;;;1.75;;
39044;SDS011;52192;52.002;5.956;2023-12-14T13:38:44;2.22;;;1.48;;
39044;SDS011;52192;52.002;5.956;2023-12-14T13:41:10;1.52;;;1.30;;
39044;SDS011;52192;52.002;5.956;2023-12-14T13:43:36;2.78;;;1.77;;
39044;SDS011;52192;52.002;5.956;2023-12-14T13:46:02;2.78;;;1.77;;
39044;SDS011;52192;52.002;5.956;2023-12-14T13:48:28;2.20;;;1.30;;
39044;SDS011;52192;52.002;5.956;2023-12-14T13:50:54;3.70;;;1.77;;
39044;SDS011;52192;52.002;5.956;2023-12-14T13:53:20;3.25;;;2.20;;
39044;SDS011;52192;52.002;5.956;2023-12-14T13:55:46;2.60;;;1.67;;
39044;SDS011;52192;52.002;5.956;2023-12-14T13:58:13;3.40;;;1.52;;
39044;SDS011;52192;52.002;5.956;2023-12-14T14:00:40;2.10;;;1.50;;
39044;SDS011;52192;52.002;5.956;2023-12-14T14:03:06;4.38;;;2.42;;
39044;SDS011;52192;52.002;5.956;2023-12-14T14:05:32;2.88;;;2.15;;
39044;SDS011;52192;52.002;5.956;2023-12-14T14:07:58;2.22;;;1.77;;
39044;SDS011;52192;52.002;5.956;2023-12-14T14:10:24;2.72;;;1.50;;
39044;SDS011;52192;52.002;5.956;2023-12-14T14:12:50;2.65;;;1.65;;
39044;SDS011;52192;52.002;5.956;2023-12-14T14:15:16;2.63;;;1.70;;
39044;SDS011;52192;52.002;5.956;2023-12-14T14:17:42;2.45;;;1.88;;
39044;SDS011;52192;52.002;5.956;2023-12-14T14:20:08;1.88;;;1.40;;
39044;SDS011;52192;52.002;5.956;2023-12-14T14:22:35;3.35;;;1.92;;
39044;SDS011;52192;52.002;5.956;2023-12-14T14:25:04;3.47;;;1.80;;
39044;SDS011;52192;52.002;5.956;2023-12-14T14:27:32;3.85;;;1.95;;
39044;SDS011;52192;52.002;5.956;2023-12-14T14:29:58;3.70;;;1.98;;
39044;SDS011;52192;52.002;5.956;2023-12-14T14:32:24;1.60;;;1.08;;
39044;SDS011;52192;52.002;5.956;2023-12-14T14:34:50;2.58;;;1.88;;
39044;SDS011;52192;52.002;5.956;2023-12-14T14:37:16;3.13;;;1.75;;
39044;SDS011;52192;52.002;5.956;2023-12-14T14:39:42;3.35;;;2.25;;
39044;SDS011;52192;52.002;5.956;2023-12-14T14:42:08;4.72;;;1.67;;
39044;SDS011;52192;52.002;5.956;2023-12-14T14:44:34;3.80;;;1.92;;
39044;SDS011;52192;52.002;5.956;2023-12-14T14:47:01;6.30;;;1.80;;
39044;SDS011;52192;52.002;5.956;2023-12-14T14:49:27;3.53;;;2.03;;
39044;SDS011;52192;52.002;5.956;2023-12-14T14:51:53;2.42;;;1.63;;